Time;durP1;ratioP1;P1;durP2;ratioP2;P2;SDS_P1;SDS_P2;PMS_P1;PMS_P2;Temp;Humidity;BMP_temperature;BMP_pressure;BME280_temperature;BME280_humidity;BME280_pressure;Samples;Min_cycle;Max_cycle;Signal;HPM_P1;HPM_P2
2022/09/25 00:01:49;;;;;;;11.90;10.70;;;16.30;99.90;;;;;;5013195;28;20203;-67
2022/09/25 00:04:15;;;;;;;11.10;10.00;;;16.20;99.90;;;;;;5012841;28;20207;-67
2022/09/25 00:06:42;;;;;;;12.10;10.90;;;16.10;99.90;;;;;;5013258;28;20650;-67
2022/09/25 00:09:09;;;;;;;11.43;10.30;;;16.10;99.90;;;;;;5013259;28;20210;-68
2022/09/25 00:11:37;;;;;;;16.20;14.50;;;16.10;99.90;;;;;;5013168;28;20207;-68
2022/09/25 00:14:04;;;;;;;12.05;10.85;;;16.00;99.90;;;;;;5012249;28;20230;-66
2022/09/25 00:16:32;;;;;;;11.70;10.60;;;16.00;99.90;;;;;;5013250;28;20234;-67
2022/09/25 00:21:43;;;;;;;11.43;9.77;;;16.00;99.90;;;;;;5013204;28;20682;-67
2022/09/25 00:24:12;;;;;;;12.07;10.53;;;16.10;99.90;;;;;;5012266;28;20214;-67
2022/09/25 00:26:42;;;;;;;11.07;9.77;;;16.20;99.90;;;;;;5012716;28;20235;-67
2022/09/25 00:29:13;;;;;;;11.32;10.10;;;16.20;99.90;;;;;;5012858;28;20701;-68
2022/09/25 00:31:40;;;;;;;12.03;10.83;;;16.20;99.90;;;;;;5012865;28;20233;-67
2022/09/25 00:34:07;;;;;;;11.30;10.30;;;16.30;99.90;;;;;;5012021;28;20223;-67
2022/09/25 00:36:35;;;;;;;13.13;9.77;;;16.30;99.90;;;;;;5012468;28;20227;-67
2022/09/25 00:39:02;;;;;;;11.70;10.50;;;16.30;99.90;;;;;;5012496;28;20215;-67
2022/09/25 00:41:30;;;;;;;11.70;10.45;;;16.20;99.90;;;;;;5011906;28;20693;-67
2022/09/25 00:43:59;;;;;;;12.17;10.33;;;16.10;99.90;;;;;;5011817;28;20238;-66
2022/09/25 00:46:30;;;;;;;11.37;10.27;;;16.00;99.90;;;;;;5012398;28;20281;-67
2022/09/25 00:49:00;;;;;;;11.63;10.37;;;15.90;99.90;;;;;;5012540;28;20215;-67
2022/09/25 00:51:33;;;;;;;11.07;9.97;;;15.80;99.90;;;;;;5012461;28;20297;-67
2022/09/25 00:54:03;;;;;;;11.57;10.43;;;15.80;99.90;;;;;;5011915;28;20223;-66
2022/09/25 00:56:36;;;;;;;12.00;10.70;;;15.70;99.90;;;;;;5012492;28;20231;-67
2022/09/25 00:59:06;;;;;;;13.30;11.93;;;15.70;99.90;;;;;;5012568;28;20595;-67
2022/09/25 01:01:32;;;;;;;14.35;11.50;;;15.60;99.90;;;;;;5012320;28;20203;-67
2022/09/25 01:03:59;;;;;;;16.47;12.13;;;15.50;99.90;;;;;;5011514;28;20253;-66
2022/09/25 01:06:27;;;;;;;14.20;12.70;;;15.50;99.90;;;;;;5041405;22;20675;-61
2022/09/25 01:08:55;;;;;;;13.43;12.03;;;15.50;99.90;;;;;;5054422;28;20204;-61
2022/09/25 01:11:22;;;;;;;14.17;12.07;;;15.60;99.90;;;;;;5054322;28;20201;-61
2022/09/25 01:13:49;;;;;;;13.90;12.40;;;15.50;99.90;;;;;;5055330;28;20220;-60
2022/09/25 01:16:26;;;;;;;14.10;12.57;;;15.50;99.90;;;;;;5055325;28;20213;-61
2022/09/25 01:19:01;;;;;;;13.57;12.17;;;15.50;99.90;;;;;;5056895;28;20205;-60
2022/09/25 01:21:39;;;;;;;14.30;12.70;;;15.50;99.90;;;;;;5057204;28;20297;-61
2022/09/25 01:24:44;;;;;;;14.67;13.27;;;15.40;99.90;;;;;;5054696;28;20600;-61
2022/09/25 01:27:40;;;;;;;15.10;13.53;;;15.40;99.90;;;;;;5016199;28;20221;-60
2022/09/25 01:30:12;;;;;;;14.13;12.63;;;15.30;99.90;;;;;;5056969;28;20225;-61
2022/09/25 01:32:50;;;;;;;14.50;13.10;;;15.20;99.90;;;;;;5057110;28;20220;-60
2022/09/25 01:35:23;;;;;;;16.30;12.70;;;15.20;99.90;;;;;;5055707;28;20580;-61
2022/09/25 01:37:54;;;;;;;14.37;12.90;;;15.10;99.90;;;;;;5054676;28;20225;-60
2022/09/25 01:40:27;;;;;;;16.87;13.60;;;15.10;99.90;;;;;;5054886;28;20213;-61
2022/09/25 01:43:02;;;;;;;13.93;12.53;;;15.20;99.90;;;;;;5055236;28;20210;-61
2022/09/25 01:45:36;;;;;;;13.97;12.57;;;15.20;99.90;;;;;;5055857;28;20272;-60
2022/09/25 01:48:05;;;;;;;15.43;13.63;;;15.20;99.90;;;;;;5055562;28;20743;-60
2022/09/25 01:50:39;;;;;;;14.93;13.50;;;15.20;99.90;;;;;;5054905;28;20206;-60
2022/09/25 01:53:12;;;;;;;16.97;14.00;;;15.20;99.90;;;;;;5055435;28;20209;-60
2022/09/25 01:55:42;;;;;;;14.87;13.37;;;15.20;99.90;;;;;;5057940;28;20229;-60
2022/09/25 01:58:13;;;;;;;17.57;13.87;;;15.20;99.90;;;;;;5059090;28;20237;-60
2022/09/25 02:00:49;;;;;;;14.90;13.30;;;15.10;99.90;;;;;;5058921;28;20206;-60
2022/09/25 02:03:21;;;;;;;14.37;12.87;;;15.00;99.90;;;;;;5057302;28;20680;-61
2022/09/25 02:05:52;;;;;;;15.33;13.30;;;15.00;99.90;;;;;;5056886;28;20202;-60
2022/09/25 02:08:22;;;;;;;15.40;13.77;;;15.00;99.90;;;;;;5056861;28;20245;-60
2022/09/25 02:10:54;;;;;;;15.27;13.67;;;15.10;99.90;;;;;;5056984;28;20213;-61
2022/09/25 02:13:25;;;;;;;16.07;14.47;;;15.20;99.90;;;;;;5057616;28;20557;-61
2022/09/25 02:15:56;;;;;;;15.90;14.30;;;15.40;99.90;;;;;;5057319;28;20283;-60
2022/09/25 02:21:14;;;;;;;15.20;13.27;;;15.50;99.90;;;;;;5057272;28;20459;-61
2022/09/25 02:23:51;;;;;;;15.47;13.13;;;15.50;99.90;;;;;;5056831;28;20212;-61
2022/09/25 02:26:25;;;;;;;15.50;14.00;;;15.60;99.90;;;;;;5055759;28;20292;-60
2022/09/25 02:28:53;;;;;;;15.93;13.03;;;15.60;99.90;;;;;;5056436;28;20213;-60
2022/09/25 02:31:25;;;;;;;15.07;13.53;;;15.70;99.90;;;;;;5056735;28;20296;-60
2022/09/25 02:33:52;;;;;;;15.33;13.80;;;15.70;99.90;;;;;;5056435;28;20217;-60
2022/09/25 02:36:22;;;;;;;14.93;13.40;;;15.70;99.90;;;;;;5056031;28;20230;-61
2022/09/25 02:38:50;;;;;;;15.13;13.63;;;15.80;99.90;;;;;;5057911;28;20300;-60
2022/09/25 02:41:25;;;;;;;15.57;14.07;;;15.80;99.90;;;;;;5056691;28;20209;-61
2022/09/25 02:44:03;;;;;;;15.43;13.83;;;15.80;99.90;;;;;;5056663;28;20232;-59
2022/09/25 02:46:37;;;;;;;15.87;14.23;;;15.80;99.90;;;;;;5055911;28;20236;-60
2022/09/25 02:49:16;;;;;;;15.37;13.87;;;15.80;99.90;;;;;;5057249;28;20209;-60
2022/09/25 02:51:52;;;;;;;14.33;11.73;;;15.70;99.90;;;;;;5056462;28;20201;-60
2022/09/25 02:54:24;;;;;;;12.40;11.10;;;15.70;99.90;;;;;;5056864;28;20209;-61
2022/09/25 02:56:56;;;;;;;11.50;10.40;;;15.70;99.90;;;;;;5057777;28;20225;-61
2022/09/25 02:59:28;;;;;;;11.30;10.20;;;15.70;99.90;;;;;;5056900;28;20205;-61
2022/09/25 03:01:57;;;;;;;10.63;9.50;;;15.60;99.90;;;;;;5057049;28;20210;-61
2022/09/25 03:04:26;;;;;;;10.40;9.50;;;15.50;99.90;;;;;;5055940;28;20213;-61
2022/09/25 03:06:53;;;;;;;11.13;9.63;;;15.40;99.90;;;;;;5056554;28;20236;-61
2022/09/25 03:09:21;;;;;;;11.50;10.30;;;15.40;99.90;;;;;;5056394;28;20233;-61
2022/09/25 03:11:48;;;;;;;11.20;9.93;;;15.30;99.90;;;;;;5056887;28;20288;-61
2022/09/25 03:14:15;;;;;;;10.83;9.73;;;15.30;99.90;;;;;;5055622;28;20205;-61
2022/09/25 03:16:46;;;;;;;15.00;9.87;;;15.30;99.90;;;;;;5055793;28;20221;-61
2022/09/25 03:19:15;;;;;;;14.10;11.20;;;15.30;99.90;;;;;;5056253;28;20205;-61
2022/09/25 03:21:42;;;;;;;12.33;10.17;;;15.20;99.90;;;;;;5055441;28;20202;-61
2022/09/25 03:24:09;;;;;;;12.03;10.73;;;15.20;99.90;;;;;;5056313;28;20209;-61
2022/09/25 03:26:36;;;;;;;11.00;9.90;;;15.20;99.90;;;;;;5055325;28;20229;-61
2022/09/25 03:29:03;;;;;;;11.20;9.30;;;15.20;99.90;;;;;;5055736;28;20205;-61
2022/09/25 03:31:30;;;;;;;11.20;10.10;;;15.20;99.90;;;;;;5055883;28;20676;-61
2022/09/25 03:33:58;;;;;;;10.63;9.53;;;15.20;99.90;;;;;;5056337;28;20208;-65
2022/09/25 03:36:27;;;;;;;11.10;10.00;;;15.10;99.90;;;;;;5056235;28;20222;-61
2022/09/25 03:38:57;;;;;;;11.57;10.37;;;15.10;99.90;;;;;;5056677;28;20206;-61
2022/09/25 03:41:26;;;;;;;11.47;9.93;;;15.20;99.90;;;;;;5056938;28;20239;-61
2022/09/25 03:43:54;;;;;;;10.80;9.70;;;15.20;99.90;;;;;;5056440;28;20216;-61
2022/09/25 03:46:22;;;;;;;11.03;9.93;;;15.20;99.90;;;;;;5055502;28;20205;-61
2022/09/25 03:48:49;;;;;;;12.03;10.30;;;15.10;99.90;;;;;;5055612;28;21151;-61
2022/09/25 03:51:16;;;;;;;12.03;10.30;;;15.10;99.90;;;;;;5055336;28;20745;-61
2022/09/25 03:53:44;;;;;;;12.07;10.87;;;15.10;99.90;;;;;;5055561;28;20240;-61
2022/09/25 03:56:16;;;;;;;13.57;12.07;;;15.20;99.90;;;;;;5055340;28;20232;-61
2022/09/25 03:58:44;;;;;;;17.57;11.93;;;15.30;99.90;;;;;;5055307;28;20248;-61
2022/09/25 04:01:11;;;;;;;13.87;11.90;;;15.30;99.90;;;;;;5055838;28;20213;-61
2022/09/25 04:03:39;;;;;;;14.37;11.97;;;15.40;99.90;;;;;;5055540;28;20205;-61
2022/09/25 04:06:07;;;;;;;14.10;12.57;;;15.40;99.90;;;;;;5054668;28;20205;-61
2022/09/25 04:08:36;;;;;;;14.13;12.60;;;15.40;99.90;;;;;;5054894;28;20304;-61
2022/09/25 04:11:04;;;;;;;14.47;12.83;;;15.50;99.90;;;;;;5054988;28;20210;-61
2022/09/25 04:13:34;;;;;;;15.23;13.23;;;15.50;99.90;;;;;;5054977;28;20206;-61
2022/09/25 04:16:03;;;;;;;17.20;14.27;;;15.50;99.90;;;;;;5053426;28;20218;-62
2022/09/25 04:18:31;;;;;;;15.20;13.60;;;15.60;99.90;;;;;;5054922;28;20221;-62
2022/09/25 04:20:58;;;;;;;17.27;14.73;;;15.60;99.90;;;;;;5055641;28;20255;-61
2022/09/25 04:23:25;;;;;;;19.30;15.33;;;15.50;99.90;;;;;;5055373;28;20216;-58
2022/09/25 04:25:52;;;;;;;39.70;29.73;;;15.50;99.90;;;;;;5054421;28;20225;-59
2022/09/25 04:28:20;;;;;;;16.30;14.30;;;15.40;99.90;;;;;;5054869;28;20253;-59
2022/09/25 04:30:47;;;;;;;15.90;14.17;;;15.40;99.90;;;;;;5057855;28;20202;-60
2022/09/25 04:35:58;;;;;;;15.67;13.87;;;15.50;99.90;;;;;;5055330;28;20295;-60
2022/09/25 04:38:25;;;;;;;16.27;13.93;;;15.40;99.90;;;;;;5055573;28;20309;-61
2022/09/25 04:40:52;;;;;;;18.40;15.23;;;15.40;99.90;;;;;;5054918;28;20206;-60
2022/09/25 04:43:20;;;;;;;21.40;18.23;;;15.30;99.90;;;;;;5055033;28;20731;-60
2022/09/25 04:45:47;;;;;;;18.60;15.17;;;15.30;99.90;;;;;;5054155;28;20202;-60
2022/09/25 04:48:13;;;;;;;16.67;14.33;;;15.30;99.90;;;;;;5055139;28;20586;-61
2022/09/25 04:50:46;;;;;;;18.73;15.57;;;15.40;99.90;;;;;;5054429;28;20283;-61
2022/09/25 04:53:13;;;;;;;22.57;18.47;;;15.50;99.90;;;;;;5054315;28;20584;-60
2022/09/25 04:55:40;;;;;;;16.90;14.00;;;15.60;99.90;;;;;;5053801;28;20229;-61
2022/09/25 04:58:07;;;;;;;17.17;13.80;;;15.60;99.90;;;;;;5054811;28;20236;-60
2022/09/25 05:00:37;;;;;;;17.17;14.90;;;15.60;99.90;;;;;;5054908;28;20219;-61
2022/09/25 05:03:04;;;;;;;19.47;14.93;;;15.70;99.90;;;;;;5054790;28;20763;-60
2022/09/25 05:05:31;;;;;;;18.27;14.37;;;15.70;99.90;;;;;;5054419;28;20272;-61
2022/09/25 05:07:59;;;;;;;17.60;15.17;;;15.70;99.90;;;;;;5054769;28;20739;-61
2022/09/25 05:10:28;;;;;;;40.13;28.10;;;15.70;99.90;;;;;;5055835;28;20214;-60
2022/09/25 05:12:57;;;;;;;18.17;14.47;;;15.70;99.90;;;;;;5055538;28;20201;-60
2022/09/25 05:15:23;;;;;;;17.67;14.37;;;15.70;99.90;;;;;;5053947;28;20644;-60
2022/09/25 05:17:59;;;;;;;17.83;14.53;;;15.70;99.90;;;;;;5055588;28;20729;-60
2022/09/25 05:20:26;;;;;;;24.27;17.90;;;15.70;99.90;;;;;;5054507;28;20217;-60
2022/09/25 05:22:55;;;;;;;17.13;14.50;;;15.70;99.90;;;;;;5054290;28;20216;-61
2022/09/25 05:25:22;;;;;;;18.37;15.63;;;15.70;99.90;;;;;;5053632;28;20197;-61
2022/09/25 05:27:49;;;;;;;19.53;15.80;;;15.70;99.90;;;;;;5057185;28;20225;-60
2022/09/25 05:30:16;;;;;;;25.63;19.67;;;15.70;99.90;;;;;;5059485;28;20209;-61
2022/09/25 05:32:48;;;;;;;17.83;15.20;;;15.70;99.90;;;;;;5059736;28;20216;-62
2022/09/25 05:35:16;;;;;;;22.10;17.63;;;15.70;99.90;;;;;;5059362;28;20209;-61
2022/09/25 05:37:43;;;;;;;27.40;18.53;;;15.70;99.90;;;;;;5059596;28;20850;-61
2022/09/25 05:40:11;;;;;;;19.37;14.90;;;15.70;99.90;;;;;;5060283;28;20689;-62
2022/09/25 05:42:38;;;;;;;23.20;17.47;;;15.70;99.90;;;;;;5060292;28;20209;-61
2022/09/25 05:45:06;;;;;;;19.67;15.80;;;15.70;99.90;;;;;;5059475;28;20320;-61
2022/09/25 05:47:33;;;;;;;22.07;15.93;;;15.80;99.90;;;;;;5060524;28;20766;-61
2022/09/25 05:50:00;;;;;;;17.50;14.83;;;15.80;99.90;;;;;;5058273;28;20244;-61
2022/09/25 05:52:28;;;;;;;19.47;15.10;;;15.90;99.90;;;;;;5058698;28;20217;-61
2022/09/25 05:54:56;;;;;;;18.73;15.23;;;15.80;99.90;;;;;;5057817;28;20212;-60
2022/09/25 05:57:23;;;;;;;20.13;15.97;;;15.90;99.90;;;;;;5058314;28;20233;-62
2022/09/25 05:59:50;;;;;;;18.67;15.57;;;15.90;99.90;;;;;;5058937;28;20236;-63
2022/09/25 06:02:17;;;;;;;21.17;15.17;;;15.90;99.90;;;;;;5058219;28;20205;-61
2022/09/25 06:04:44;;;;;;;18.43;16.17;;;15.90;99.90;;;;;;5057253;28;20212;-60
2022/09/25 06:07:11;;;;;;;15.90;13.93;;;15.90;99.90;;;;;;5058717;28;20243;-61
2022/09/25 06:09:39;;;;;;;17.53;14.73;;;15.90;99.90;;;;;;5060004;28;20292;-61
2022/09/25 06:12:06;;;;;;;16.10;13.63;;;15.90;99.90;;;;;;5061175;28;20213;-60
2022/09/25 06:14:34;;;;;;;16.20;13.13;;;15.90;99.90;;;;;;5059145;28;20647;-61
2022/09/25 06:17:01;;;;;;;17.67;14.70;;;15.90;99.90;;;;;;5058953;28;20237;-61
2022/09/25 06:19:28;;;;;;;15.37;12.97;;;15.90;99.90;;;;;;5058693;28;20300;-60
2022/09/25 06:21:56;;;;;;;18.00;13.00;;;16.00;99.90;;;;;;5059989;28;20201;-62
2022/09/25 06:24:23;;;;;;;16.47;11.77;;;16.00;99.90;;;;;;5059212;28;20262;-61
2022/09/25 06:26:51;;;;;;;17.93;14.93;;;16.00;99.90;;;;;;5057539;28;20231;-61
2022/09/25 06:29:18;;;;;;;17.13;12.33;;;16.10;99.90;;;;;;5058248;28;20202;-62
2022/09/25 06:31:45;;;;;;;14.13;12.20;;;16.20;99.90;;;;;;5057599;28;20202;-61
2022/09/25 06:34:18;;;;;;;14.87;12.60;;;16.20;99.90;;;;;;5057587;28;20228;-61
2022/09/25 06:36:44;;;;;;;12.23;11.00;;;16.30;99.90;;;;;;5056498;28;20233;-61
2022/09/25 06:39:11;;;;;;;13.20;11.77;;;16.40;99.90;;;;;;5056491;28;20271;-60
2022/09/25 06:41:38;;;;;;;11.33;10.13;;;16.40;99.90;;;;;;5056842;28;20202;-61
2022/09/25 06:44:07;;;;;;;14.83;11.00;;;16.60;99.90;;;;;;5057199;28;20363;-61
2022/09/25 06:46:35;;;;;;;13.10;11.17;;;16.60;99.90;;;;;;5056832;28;20681;-61
2022/09/25 06:49:02;;;;;;;17.27;13.83;;;16.60;99.90;;;;;;5056290;28;20209;-61
2022/09/25 06:51:31;;;;;;;12.65;10.52;;;16.70;99.90;;;;;;5056464;28;20208;-61
2022/09/25 06:53:58;;;;;;;11.13;9.98;;;16.70;99.90;;;;;;5056070;28;20319;-61
2022/09/25 06:56:25;;;;;;;14.83;12.23;;;16.70;99.90;;;;;;5055896;28;20222;-60
2022/09/25 06:58:52;;;;;;;12.00;10.10;;;16.70;99.90;;;;;;5057992;28;20209;-61
2022/09/25 07:01:20;;;;;;;10.30;9.20;;;16.70;99.90;;;;;;5056359;28;20209;-60
2022/09/25 07:03:48;;;;;;;10.40;9.27;;;16.80;99.90;;;;;;5059141;28;20237;-60
2022/09/25 07:06:16;;;;;;;11.80;9.77;;;16.90;99.90;;;;;;5055620;28;20205;-60
2022/09/25 07:08:43;;;;;;;10.70;9.60;;;17.00;99.90;;;;;;5056397;28;20213;-60
2022/09/25 07:11:13;;;;;;;10.97;8.90;;;17.10;99.90;;;;;;5056143;28;20205;-60
2022/09/25 07:13:41;;;;;;;10.53;9.00;;;17.20;99.90;;;;;;5056638;28;20213;-60
2022/09/25 07:16:11;;;;;;;10.30;9.05;;;17.30;99.90;;;;;;5057811;28;20222;-60
2022/09/25 07:18:39;;;;;;;11.07;9.52;;;17.30;99.90;;;;;;5058647;28;20277;-60
2022/09/25 07:21:08;;;;;;;11.27;9.43;;;17.30;99.90;;;;;;5059327;28;20556;-60
2022/09/25 07:23:36;;;;;;;13.87;12.27;;;17.40;99.90;;;;;;5058603;28;20209;-59
2022/09/25 07:26:08;;;;;;;10.30;9.20;;;17.40;99.90;;;;;;5058025;28;20208;-59
2022/09/25 07:28:36;;;;;;;10.07;9.07;;;17.50;99.90;;;;;;5057993;28;20216;-60
2022/09/25 07:31:14;;;;;;;11.95;9.52;;;17.50;99.90;;;;;;5058434;28;20201;-59
2022/09/25 07:33:43;;;;;;;11.65;10.20;;;17.70;99.90;;;;;;5058219;28;20655;-60
2022/09/25 07:36:10;;;;;;;10.60;9.30;;;17.70;99.90;;;;;;5057160;28;20232;-59
2022/09/25 07:38:38;;;;;;;10.45;9.27;;;17.80;99.90;;;;;;5059505;28;20639;-59
2022/09/25 07:41:05;;;;;;;11.73;9.02;;;17.90;99.90;;;;;;5059231;28;20692;-59
2022/09/25 07:43:32;;;;;;;11.00;9.57;;;17.90;99.90;;;;;;5057433;28;20205;-59
2022/09/25 07:45:58;;;;;;;10.55;9.30;;;18.00;99.90;;;;;;5057923;28;20209;-60
2022/09/25 07:48:25;;;;;;;9.75;8.85;;;18.00;99.90;;;;;;5059313;28;20226;-60
2022/09/25 07:50:54;;;;;;;8.82;7.95;;;18.10;99.90;;;;;;5060107;28;20218;-60
2022/09/25 07:53:21;;;;;;;10.10;8.00;;;18.10;99.90;;;;;;5057520;28;20335;-61
2022/09/25 07:55:48;;;;;;;9.55;8.65;;;18.00;99.90;;;;;;5055565;28;20292;-60
2022/09/25 07:58:18;;;;;;;9.65;7.82;;;18.00;99.90;;;;;;5056816;28;20251;-61
2022/09/25 08:00:45;;;;;;;11.25;8.00;;;18.10;99.90;;;;;;5058105;28;20261;-61
2022/09/25 08:03:14;;;;;;;9.63;8.35;;;18.10;99.90;;;;;;5058592;28;20297;-61
2022/09/25 08:05:42;;;;;;;9.90;8.18;;;18.00;99.90;;;;;;5059060;28;20224;-60
2022/09/25 08:08:10;;;;;;;9.18;8.25;;;18.00;99.90;;;;;;5058138;28;20648;-59
2022/09/25 08:10:36;;;;;;;8.45;7.45;;;18.00;99.90;;;;;;5058172;28;20293;-61
2022/09/25 08:13:03;;;;;;;26.75;23.20;;;18.10;99.90;;;;;;5057198;28;20217;-61
2022/09/25 08:15:30;;;;;;;8.02;7.22;;;18.20;99.90;;;;;;5056266;28;20206;-61
2022/09/25 08:17:56;;;;;;;8.60;7.05;;;18.20;99.90;;;;;;5057884;28;20233;-61
2022/09/25 08:20:23;;;;;;;10.20;7.30;;;18.40;99.90;;;;;;5058699;28;20212;-61
2022/09/25 08:22:53;;;;;;;7.85;7.07;;;18.40;99.90;;;;;;5056063;28;20225;-61
2022/09/25 08:25:21;;;;;;;8.90;7.45;;;18.50;99.90;;;;;;5056027;28;20289;-60
2022/09/25 08:27:48;;;;;;;8.40;6.47;;;18.60;99.90;;;;;;5055745;28;20230;-61
2022/09/25 08:30:16;;;;;;;9.73;7.47;;;18.60;99.90;;;;;;5056688;28;20235;-61
2022/09/25 08:32:43;;;;;;;11.85;7.18;;;18.60;99.90;;;;;;5055399;28;20301;-60
2022/09/25 08:35:10;;;;;;;8.25;7.35;;;18.70;99.90;;;;;;5054965;28;20212;-60
2022/09/25 08:37:40;;;;;;;7.70;6.93;;;18.70;99.90;;;;;;5054768;28;20229;-61
2022/09/25 08:40:16;;;;;;;7.45;6.40;;;18.70;99.90;;;;;;5054651;28;20205;-60
2022/09/25 08:42:47;;;;;;;7.10;5.90;;;18.80;99.90;;;;;;5055006;28;20208;-62
2022/09/25 08:51:05;;;;;;;6.40;5.75;;;19.00;99.90;;;;;;5052901;28;20251;-60
2022/09/25 08:53:35;;;;;;;6.60;5.63;;;19.30;99.90;;;;;;5052921;28;20259;-59
2022/09/25 08:56:17;;;;;;;8.32;5.65;;;19.50;99.90;;;;;;5052003;28;20271;-59
2022/09/25 08:58:51;;;;;;;8.70;5.50;;;19.70;99.90;;;;;;5052749;28;20677;-60
2022/09/25 09:01:22;;;;;;;6.60;5.45;;;19.80;99.90;;;;;;5052193;28;20585;-59
2022/09/25 09:03:55;;;;;;;6.43;5.68;;;19.80;99.90;;;;;;5052909;28;20213;-60
2022/09/25 09:06:24;;;;;;;6.68;5.93;;;19.70;99.90;;;;;;5052455;28;20209;-59
2022/09/25 09:08:58;;;;;;;6.35;5.75;;;19.70;99.90;;;;;;5053144;28;20208;-59
2022/09/25 09:11:30;;;;;;;6.95;6.07;;;19.60;99.90;;;;;;5052994;28;20582;-60
2022/09/25 09:14:02;;;;;;;6.35;5.75;;;19.80;99.90;;;;;;5053227;28;20658;-59
2022/09/25 09:16:35;;;;;;;8.02;7.22;;;19.80;99.90;;;;;;5052720;28;20264;-59
2022/09/25 09:19:05;;;;;;;6.78;5.85;;;19.80;99.90;;;;;;5052840;28;20205;-60
2022/09/25 09:21:35;;;;;;;7.43;6.63;;;19.70;99.90;;;;;;5053102;28;20584;-59
2022/09/25 09:24:07;;;;;;;7.60;6.65;;;19.70;99.90;;;;;;5053071;28;20206;-59
2022/09/25 09:26:52;;;;;;;15.50;12.45;;;19.90;99.90;;;;;;5051994;28;20697;-59
2022/09/25 09:29:31;;;;;;;16.60;12.45;;;20.10;99.90;;;;;;5052753;28;20208;-59
2022/09/25 09:32:10;;;;;;;10.70;6.70;;;20.20;99.90;;;;;;5052490;28;20241;-59
2022/09/25 09:34:57;;;;;;;9.43;6.65;;;20.30;99.90;;;;;;5052332;28;20241;-59
2022/09/25 09:37:30;;;;;;;8.68;7.05;;;20.40;99.90;;;;;;5052317;28;20257;-59
2022/09/25 09:40:10;;;;;;;8.02;7.10;;;20.40;99.90;;;;;;5051786;28;20212;-59
2022/09/25 09:42:42;;;;;;;7.45;6.65;;;20.60;99.90;;;;;;5050603;28;20673;-59
2022/09/25 09:45:17;;;;;;;7.75;6.90;;;20.80;99.90;;;;;;5051494;28;20237;-58
2022/09/25 09:47:50;;;;;;;9.15;6.90;;;20.80;99.90;;;;;;5044100;28;20678;-59
2022/09/25 09:50:27;;;;;;;8.60;6.70;;;20.30;99.90;;;;;;5052398;28;20205;-60
2022/09/25 09:53:00;;;;;;;9.05;7.65;;;19.90;99.90;;;;;;5052196;28;20217;-59
2022/09/25 09:55:34;;;;;;;10.13;7.32;;;19.60;99.90;;;;;;5051217;28;20207;-60
2022/09/25 09:58:06;;;;;;;8.07;6.75;;;19.40;99.90;;;;;;5052612;28;20696;-57
2022/09/25 10:00:35;;;;;;;7.07;6.38;;;19.20;99.90;;;;;;5051307;28;20260;-66
2022/09/25 10:03:09;;;;;;;7.70;6.53;;;19.00;99.90;;;;;;5051305;28;20201;-59
2022/09/25 10:05:41;;;;;;;8.20;6.68;;;18.90;99.90;;;;;;5049324;28;20220;-61
2022/09/25 10:08:09;;;;;;;8.70;6.47;;;18.90;99.90;;;;;;5050815;28;20235;-61
2022/09/25 10:10:38;;;;;;;9.45;6.75;;;18.90;99.90;;;;;;5050747;28;20300;-61
2022/09/25 10:13:14;;;;;;;10.18;6.75;;;18.90;99.90;;;;;;5050660;28;20578;-61
2022/09/25 10:15:47;;;;;;;9.13;7.13;;;18.90;99.90;;;;;;5053480;28;20205;-61
2022/09/25 10:18:15;;;;;;;8.93;6.63;;;18.90;99.90;;;;;;5055440;28;20225;-61
2022/09/25 10:20:45;;;;;;;7.10;6.40;;;18.70;99.90;;;;;;5055487;28;20244;-64
2022/09/25 10:23:24;;;;;;;9.18;7.03;;;18.60;99.90;;;;;;5055154;28;20212;-66
2022/09/25 10:25:51;;;;;;;9.07;7.43;;;18.60;99.90;;;;;;5054816;28;20214;-63
2022/09/25 10:28:28;;;;;;;9.82;6.90;;;18.50;99.90;;;;;;5055149;28;20317;-61
2022/09/25 10:30:58;;;;;;;7.78;6.97;;;18.50;99.90;;;;;;5054843;28;20255;-64
2022/09/25 10:33:27;;;;;;;7.60;6.80;;;18.50;99.90;;;;;;5053856;28;20270;-61
2022/09/25 10:35:55;;;;;;;9.00;7.50;;;18.50;99.90;;;;;;5054192;28;20299;-64
2022/09/25 10:38:32;;;;;;;10.18;7.95;;;18.70;99.90;;;;;;5053950;28;20237;-60
2022/09/25 10:41:05;;;;;;;9.10;7.75;;;18.80;99.90;;;;;;5054109;28;20205;-60
2022/09/25 10:43:32;;;;;;;10.43;7.80;;;19.00;99.90;;;;;;5054246;28;20214;-59
2022/09/25 10:50:09;;;;;;;9.13;8.05;;;19.20;99.90;;;;;;5042800;28;20209;-60
2022/09/25 10:52:05;;;;;;;9.43;8.00;;;19.40;99.90;;;;;;5054154;28;20213;-63
2022/09/25 10:54:33;;;;;;;10.98;8.73;;;19.60;99.90;;;;;;5054491;28;20202;-62
2022/09/25 10:57:00;;;;;;;10.02;8.32;;;19.90;99.90;;;;;;5052972;28;20294;-59
2022/09/25 10:59:29;;;;;;;10.32;7.60;;;20.20;99.90;;;;;;5054073;28;20243;-60
2022/09/25 11:01:57;;;;;;;9.02;7.72;;;20.30;99.90;;;;;;5054963;28;20212;-60
2022/09/25 11:04:27;;;;;;;11.80;8.00;;;20.50;99.90;;;;;;5054597;28;20209;-58
2022/09/25 11:06:58;;;;;;;11.32;7.75;;;20.50;99.90;;;;;;5054449;28;20613;-61
2022/09/25 11:09:27;;;;;;;10.35;7.22;;;20.60;99.90;;;;;;5054473;28;20263;-60
2022/09/25 11:12:06;;;;;;;12.00;7.20;;;20.80;99.90;;;;;;5053523;28;20241;-59
2022/09/25 11:14:35;;;;;;;9.68;6.90;;;20.60;99.90;;;;;;5053041;28;20239;-58
2022/09/25 11:17:05;;;;;;;9.25;7.55;;;20.60;99.90;;;;;;5052672;28;20221;-60
2022/09/25 11:19:33;;;;;;;10.27;7.43;;;20.50;99.90;;;;;;5053350;28;20248;-60
2022/09/25 11:22:07;;;;;;;10.30;7.43;;;20.40;99.90;;;;;;5052467;28;20205;-57
2022/09/25 11:24:45;;;;;;;11.43;7.70;;;20.30;99.90;;;;;;5053600;28;20209;-61
2022/09/25 11:27:17;;;;;;;9.60;7.00;;;20.10;99.90;;;;;;5051502;28;20620;-60
2022/09/25 11:29:52;;;;;;;13.23;9.40;;;19.90;99.90;;;;;;5053696;28;20216;-60
2022/09/25 11:32:28;;;;;;;10.13;7.80;;;19.80;99.90;;;;;;5052941;28;20240;-59
2022/09/25 11:35:22;;;;;;;8.45;7.55;;;19.60;99.90;;;;;;5052978;28;20216;-58
2022/09/25 11:37:58;;;;;;;9.43;7.53;;;19.50;99.90;;;;;;5052558;28;20241;-59
2022/09/25 11:43:26;;;;;;;9.38;7.40;;;19.50;99.90;;;;;;5052287;28;20692;-59
2022/09/25 11:46:01;;;;;;;7.22;6.53;;;19.70;99.90;;;;;;5051550;28;20295;-60
2022/09/25 11:48:42;;;;;;;9.63;7.47;;;19.90;99.90;;;;;;5051769;28;20225;-64
2022/09/25 11:51:15;;;;;;;9.73;8.13;;;20.00;99.90;;;;;;5051249;28;20209;-57
2022/09/25 11:53:51;;;;;;;11.18;8.55;;;20.10;99.90;;;;;;5052914;28;20584;-60
2022/09/25 11:56:29;;;;;;;9.75;8.73;;;20.10;99.90;;;;;;5051298;28;20600;-60
2022/09/25 11:59:21;;;;;;;9.63;7.95;;;20.10;99.90;;;;;;5051912;28;20601;-60
2022/09/25 12:01:56;;;;;;;8.02;7.13;;;20.20;99.90;;;;;;5050888;28;20255;-59
2022/09/25 12:04:41;;;;;;;8.70;7.80;;;20.50;99.90;;;;;;5051765;28;20205;-59
2022/09/25 12:07:34;;;;;;;10.05;7.90;;;20.60;99.90;;;;;;5048448;28;20269;-60
2022/09/25 12:10:14;;;;;;;9.80;7.55;;;20.90;99.90;;;;;;5051816;28;20204;-59
2022/09/25 12:12:50;;;;;;;9.00;7.95;;;21.10;99.90;;;;;;5051972;28;20213;-58
2022/09/25 12:15:24;;;;;;;10.32;8.50;;;21.30;99.90;;;;;;5051556;28;20212;-60
2022/09/25 12:17:59;;;;;;;8.80;7.80;;;21.30;99.90;;;;;;5051811;28;20229;-59
2022/09/25 12:20:33;;;;;;;11.05;8.20;;;21.50;99.90;;;;;;5051853;28;20209;-58
2022/09/25 12:23:13;;;;;;;10.63;9.18;;;21.60;99.90;;;;;;5051971;28;20210;-58
2022/09/25 12:25:53;;;;;;;9.38;7.28;;;21.80;99.90;;;;;;5052312;28;20305;-58
2022/09/25 12:28:30;;;;;;;11.73;8.25;;;22.00;99.90;;;;;;5052538;28;20710;-57
2022/09/25 12:31:07;;;;;;;11.77;8.38;;;22.20;99.90;;;;;;5052326;28;20210;-59
2022/09/25 12:33:41;;;;;;;10.77;8.43;;;22.40;99.90;;;;;;5051936;28;20205;-59
2022/09/25 12:36:16;;;;;;;10.25;8.20;;;22.50;99.90;;;;;;5051111;28;20209;-61
2022/09/25 12:38:49;;;;;;;9.15;7.97;;;22.70;99.90;;;;;;5052289;28;20229;-60
2022/09/25 12:41:20;;;;;;;9.98;7.85;;;22.80;99.90;;;;;;5053052;28;20558;-62
2022/09/25 12:43:52;;;;;;;9.07;8.18;;;23.00;99.90;;;;;;5053357;28;20216;-60
2022/09/25 12:46:26;;;;;;;9.13;7.82;;;23.20;99.90;;;;;;5051602;28;20224;-61
2022/09/25 12:48:58;;;;;;;10.98;9.65;;;23.20;99.90;;;;;;5050042;28;20198;-58
2022/09/25 12:51:33;;;;;;;9.90;8.30;;;23.10;99.90;;;;;;5051789;28;20201;-61
2022/09/25 12:54:04;;;;;;;8.60;7.68;;;22.80;99.90;;;;;;5051717;28;20208;-58
2022/09/25 12:56:40;;;;;;;9.18;8.27;;;22.60;99.90;;;;;;5050037;28;20225;-59
2022/09/25 12:59:15;;;;;;;9.25;7.55;;;22.00;99.90;;;;;;5051086;28;20607;-59
2022/09/25 13:01:51;;;;;;;8.80;7.05;;;21.80;99.90;;;;;;5051656;28;20212;-61
2022/09/25 13:04:33;;;;;;;8.43;7.57;;;21.80;99.90;;;;;;5049726;28;20229;-58
2022/09/25 13:07:11;;;;;;;9.65;7.05;;;21.80;99.90;;;;;;5063959;22;20225;-59
2022/09/25 13:09:43;;;;;;;8.20;6.95;;;21.80;99.90;;;;;;5022244;28;20202;-58
2022/09/25 13:12:18;;;;;;;7.97;6.90;;;21.60;99.90;;;;;;5030919;28;20212;-62
2022/09/25 13:14:51;;;;;;;8.80;7.63;;;21.60;99.90;;;;;;5030822;28;20260;-61